ENNA

Banak Airport

Lakselv, Norway
METAR ENNA 201450Z 20005KT CAVOK M17/M19 Q1029 RMK WIND 1800FT 29009KT
Observed Flight Rules
Feb-20 @ 14:50 UTC (3 hours ago) Visual Flight Rules
Wind Visibility Clouds
200° at 5 knots 10,000+ meters
  • Clear skies
Temperatures Readings
Current -17°C / 1°F
Dewpoint -19°C / -2°F
Humidity 85%
Altimeter 30.38" Hg
Pressure 1029 hPa
Elevation 8
METAR ENNA 201450Z 20005KT CAVOK M17/M19 Q1029 RMK WIND 1800FT 29009KT
Observed Flight Rules
Feb-20 @ 14:50 UTC
(3 hours ago)
VFR
Wind Visibility
200° at 5 knots 10,000+ meters
Clouds
  • Clear skies
Temperature Dewpoint
-17°C / 1°F -19°C / -2°F
Humidity Altimeter Pressure
85% 30.38" Hg 1029 hPa